sensor_id;sensor_type;location;lat;lon;timestamp;temperature;humidity
14357;DHT22;7262;48.764;9.166;2023-01-29T00:01:47;1.00;99.90
14357;DHT22;7262;48.764;9.166;2023-01-29T00:04:15;1.10;99.90
14357;DHT22;7262;48.764;9.166;2023-01-29T00:06:42;1.00;99.90
14357;DHT22;7262;48.764;9.166;2023-01-29T00:09:09;1.00;99.90
14357;DHT22;7262;48.764;9.166;2023-01-29T00:11:36;1.00;99.90
14357;DHT22;7262;48.764;9.166;2023-01-29T00:14:03;1.00;99.90
14357;DHT22;7262;48.764;9.166;2023-01-29T00:16:30;1.00;99.90
14357;DHT22;7262;48.764;9.166;2023-01-29T00:18:56;1.10;99.90
14357;DHT22;7262;48.764;9.166;2023-01-29T00:21:25;1.10;99.90
14357;DHT22;7262;48.764;9.166;2023-01-29T00:23:52;1.20;99.90
14357;DHT22;7262;48.764;9.166;2023-01-29T00:26:20;1.20;99.90
14357;DHT22;7262;48.764;9.166;2023-01-29T00:28:47;1.20;99.90
14357;DHT22;7262;48.764;9.166;2023-01-29T00:31:14;1.20;99.90
14357;DHT22;7262;48.764;9.166;2023-01-29T00:33:41;1.20;99.90
14357;DHT22;7262;48.764;9.166;2023-01-29T00:36:11;1.10;99.90
14357;DHT22;7262;48.764;9.166;2023-01-29T00:38:39;1.20;99.90
14357;DHT22;7262;48.764;9.166;2023-01-29T00:41:06;1.10;99.90
14357;DHT22;7262;48.764;9.166;2023-01-29T00:43:51;1.00;99.90
14357;DHT22;7262;48.764;9.166;2023-01-29T00:46:44;1.00;99.90
14357;DHT22;7262;48.764;9.166;2023-01-29T00:49:13;1.00;99.90
14357;DHT22;7262;48.764;9.166;2023-01-29T00:51:40;1.00;99.90
14357;DHT22;7262;48.764;9.166;2023-01-29T00:54:08;1.00;99.90
14357;DHT22;7262;48.764;9.166;2023-01-29T00:56:35;1.00;99.90
14357;DHT22;7262;48.764;9.166;2023-01-29T00:59:02;1.00;99.90
14357;DHT22;7262;48.764;9.166;2023-01-29T01:01:29;1.00;99.90
14357;DHT22;7262;48.764;9.166;2023-01-29T01:04:13;1.00;99.90
14357;DHT22;7262;48.764;9.166;2023-01-29T01:06:40;1.00;99.90
14357;DHT22;7262;48.764;9.166;2023-01-29T01:09:09;1.00;99.90
14357;DHT22;7262;48.764;9.166;2023-01-29T01:11:53;1.00;99.90
14357;DHT22;7262;48.764;9.166;2023-01-29T01:14:20;1.00;99.90
14357;DHT22;7262;48.764;9.166;2023-01-29T01:16:47;0.90;99.90
14357;DHT22;7262;48.764;9.166;2023-01-29T01:19:14;1.00;99.90
14357;DHT22;7262;48.764;9.166;2023-01-29T01:21:41;1.00;99.90
14357;DHT22;7262;48.764;9.166;2023-01-29T01:24:13;1.00;99.90
14357;DHT22;7262;48.764;9.166;2023-01-29T01:26:40;1.00;99.90
14357;DHT22;7262;48.764;9.166;2023-01-29T01:29:07;1.00;99.90
14357;DHT22;7262;48.764;9.166;2023-01-29T01:31:35;1.00;99.90
14357;DHT22;7262;48.764;9.166;2023-01-29T01:34:01;1.00;99.90
14357;DHT22;7262;48.764;9.166;2023-01-29T01:36:28;1.00;99.90
14357;DHT22;7262;48.764;9.166;2023-01-29T01:38:56;0.90;99.90
14357;DHT22;7262;48.764;9.166;2023-01-29T01:41:24;0.80;99.90
14357;DHT22;7262;48.764;9.166;2023-01-29T01:43:52;0.80;99.90
14357;DHT22;7262;48.764;9.166;2023-01-29T01:46:20;0.80;99.90
14357;DHT22;7262;48.764;9.166;2023-01-29T01:48:47;0.80;99.90
14357;DHT22;7262;48.764;9.166;2023-01-29T01:51:17;0.90;99.90
14357;DHT22;7262;48.764;9.166;2023-01-29T01:53:47;0.90;99.90
14357;DHT22;7262;48.764;9.166;2023-01-29T01:56:17;0.90;99.90
14357;DHT22;7262;48.764;9.166;2023-01-29T01:58:47;0.90;99.90
14357;DHT22;7262;48.764;9.166;2023-01-29T02:01:16;0.80;99.90
14357;DHT22;7262;48.764;9.166;2023-01-29T02:03:46;0.90;99.90
14357;DHT22;7262;48.764;9.166;2023-01-29T02:06:32;0.90;99.90
14357;DHT22;7262;48.764;9.166;2023-01-29T02:09:19;0.90;99.90
14357;DHT22;7262;48.764;9.166;2023-01-29T02:12:02;0.90;99.90
14357;DHT22;7262;48.764;9.166;2023-01-29T02:14:30;0.90;99.90
14357;DHT22;7262;48.764;9.166;2023-01-29T02:16:59;0.90;99.90
14357;DHT22;7262;48.764;9.166;2023-01-29T02:19:29;1.00;99.90
14357;DHT22;7262;48.764;9.166;2023-01-29T02:22:05;0.90;99.90
14357;DHT22;7262;48.764;9.166;2023-01-29T02:24:52;0.90;99.90
14357;DHT22;7262;48.764;9.166;2023-01-29T02:27:24;0.80;99.90
14357;DHT22;7262;48.764;9.166;2023-01-29T02:29:56;0.80;99.90
14357;DHT22;7262;48.764;9.166;2023-01-29T02:32:29;0.80;99.90
14357;DHT22;7262;48.764;9.166;2023-01-29T02:34:59;0.80;99.90
14357;DHT22;7262;48.764;9.166;2023-01-29T02:37:49;0.80;99.90
14357;DHT22;7262;48.764;9.166;2023-01-29T02:40:22;0.80;99.90
14357;DHT22;7262;48.764;9.166;2023-01-29T02:42:52;0.70;99.90
14357;DHT22;7262;48.764;9.166;2023-01-29T02:45:23;0.70;99.90
14357;DHT22;7262;48.764;9.166;2023-01-29T02:47:55;0.60;99.90
14357;DHT22;7262;48.764;9.166;2023-01-29T02:50:25;0.50;99.90
14357;DHT22;7262;48.764;9.166;2023-01-29T02:52:56;0.50;99.90
14357;DHT22;7262;48.764;9.166;2023-01-29T02:55:27;0.60;99.90
14357;DHT22;7262;48.764;9.166;2023-01-29T02:57:58;0.60;99.90
14357;DHT22;7262;48.764;9.166;2023-01-29T03:00:28;0.60;99.90
14357;DHT22;7262;48.764;9.166;2023-01-29T03:02:57;0.60;99.90
14357;DHT22;7262;48.764;9.166;2023-01-29T03:05:26;0.60;99.90
14357;DHT22;7262;48.764;9.166;2023-01-29T03:07:55;0.60;99.90
14357;DHT22;7262;48.764;9.166;2023-01-29T03:10:25;0.70;99.90
14357;DHT22;7262;48.764;9.166;2023-01-29T03:12:53;0.70;99.90
14357;DHT22;7262;48.764;9.166;2023-01-29T03:15:22;0.70;99.90
14357;DHT22;7262;48.764;9.166;2023-01-29T03:17:53;0.70;99.90
14357;DHT22;7262;48.764;9.166;2023-01-29T03:20:22;0.70;99.90
14357;DHT22;7262;48.764;9.166;2023-01-29T03:22:52;0.60;99.90
14357;DHT22;7262;48.764;9.166;2023-01-29T03:25:22;0.60;99.90
14357;DHT22;7262;48.764;9.166;2023-01-29T03:28:07;0.60;99.90
14357;DHT22;7262;48.764;9.166;2023-01-29T03:30:53;0.60;99.90
14357;DHT22;7262;48.764;9.166;2023-01-29T03:33:41;0.60;99.90
14357;DHT22;7262;48.764;9.166;2023-01-29T03:36:12;0.60;99.90
14357;DHT22;7262;48.764;9.166;2023-01-29T03:38:41;0.50;99.90
14357;DHT22;7262;48.764;9.166;2023-01-29T03:41:09;0.50;99.90
14357;DHT22;7262;48.764;9.166;2023-01-29T03:43:43;0.60;99.90
14357;DHT22;7262;48.764;9.166;2023-01-29T03:46:15;0.60;99.90
14357;DHT22;7262;48.764;9.166;2023-01-29T03:48:49;0.60;99.90
14357;DHT22;7262;48.764;9.166;2023-01-29T03:51:20;0.60;99.90
14357;DHT22;7262;48.764;9.166;2023-01-29T03:53:51;0.60;99.90
14357;DHT22;7262;48.764;9.166;2023-01-29T03:56:32;0.60;99.90
14357;DHT22;7262;48.764;9.166;2023-01-29T03:59:03;0.50;99.90
14357;DHT22;7262;48.764;9.166;2023-01-29T04:01:37;0.60;99.90
14357;DHT22;7262;48.764;9.166;2023-01-29T04:04:08;0.60;99.90
14357;DHT22;7262;48.764;9.166;2023-01-29T04:06:38;0.70;99.90
14357;DHT22;7262;48.764;9.166;2023-01-29T04:09:09;0.70;99.90
14357;DHT22;7262;48.764;9.166;2023-01-29T04:11:37;0.70;99.90
14357;DHT22;7262;48.764;9.166;2023-01-29T04:14:05;0.70;99.90
14357;DHT22;7262;48.764;9.166;2023-01-29T04:16:34;0.60;99.90
14357;DHT22;7262;48.764;9.166;2023-01-29T04:19:03;0.60;99.90
14357;DHT22;7262;48.764;9.166;2023-01-29T04:21:31;0.60;99.90
14357;DHT22;7262;48.764;9.166;2023-01-29T04:24:01;0.60;99.90
14357;DHT22;7262;48.764;9.166;2023-01-29T04:26:32;0.60;99.90
14357;DHT22;7262;48.764;9.166;2023-01-29T04:29:09;0.50;99.90
14357;DHT22;7262;48.764;9.166;2023-01-29T04:31:42;0.40;99.90
14357;DHT22;7262;48.764;9.166;2023-01-29T04:34:13;0.50;99.90
14357;DHT22;7262;48.764;9.166;2023-01-29T04:36:45;0.50;99.90
14357;DHT22;7262;48.764;9.166;2023-01-29T04:39:17;0.40;99.90
14357;DHT22;7262;48.764;9.166;2023-01-29T04:41:46;0.50;99.90
14357;DHT22;7262;48.764;9.166;2023-01-29T04:44:17;0.50;99.90
14357;DHT22;7262;48.764;9.166;2023-01-29T04:46:46;0.40;99.90
14357;DHT22;7262;48.764;9.166;2023-01-29T04:49:16;0.40;99.90
14357;DHT22;7262;48.764;9.166;2023-01-29T04:51:48;0.40;99.90
14357;DHT22;7262;48.764;9.166;2023-01-29T04:54:18;0.50;99.90
14357;DHT22;7262;48.764;9.166;2023-01-29T04:56:48;0.50;99.90
14357;DHT22;7262;48.764;9.166;2023-01-29T04:59:18;0.50;99.90
14357;DHT22;7262;48.764;9.166;2023-01-29T05:01:46;0.50;99.90
14357;DHT22;7262;48.764;9.166;2023-01-29T05:04:14;0.50;99.90
14357;DHT22;7262;48.764;9.166;2023-01-29T05:06:42;0.50;99.90
14357;DHT22;7262;48.764;9.166;2023-01-29T05:09:13;0.50;99.90
14357;DHT22;7262;48.764;9.166;2023-01-29T05:11:40;0.40;99.90
14357;DHT22;7262;48.764;9.166;2023-01-29T05:14:08;0.40;99.90
14357;DHT22;7262;48.764;9.166;2023-01-29T05:16:37;0.40;99.90
14357;DHT22;7262;48.764;9.166;2023-01-29T05:19:07;0.40;99.90
14357;DHT22;7262;48.764;9.166;2023-01-29T05:21:34;0.50;99.90
14357;DHT22;7262;48.764;9.166;2023-01-29T05:24:08;0.50;99.90
14357;DHT22;7262;48.764;9.166;2023-01-29T05:26:37;0.50;99.90
14357;DHT22;7262;48.764;9.166;2023-01-29T05:29:21;0.50;99.90
14357;DHT22;7262;48.764;9.166;2023-01-29T05:31:48;0.50;99.90
14357;DHT22;7262;48.764;9.166;2023-01-29T05:34:14;0.40;99.90
14357;DHT22;7262;48.764;9.166;2023-01-29T05:36:41;0.40;99.90
14357;DHT22;7262;48.764;9.166;2023-01-29T05:39:08;0.30;99.90
14357;DHT22;7262;48.764;9.166;2023-01-29T05:41:37;0.30;99.90
14357;DHT22;7262;48.764;9.166;2023-01-29T05:44:04;0.30;99.90
14357;DHT22;7262;48.764;9.166;2023-01-29T05:46:31;0.30;99.90
14357;DHT22;7262;48.764;9.166;2023-01-29T05:48:57;0.30;99.90
14357;DHT22;7262;48.764;9.166;2023-01-29T05:51:24;0.30;99.90
14357;DHT22;7262;48.764;9.166;2023-01-29T05:53:51;0.40;99.90
14357;DHT22;7262;48.764;9.166;2023-01-29T05:56:18;0.30;99.90
14357;DHT22;7262;48.764;9.166;2023-01-29T05:58:46;0.20;99.90
14357;DHT22;7262;48.764;9.166;2023-01-29T06:01:13;0.00;99.90
14357;DHT22;7262;48.764;9.166;2023-01-29T06:03:40;0.30;99.90
14357;DHT22;7262;48.764;9.166;2023-01-29T06:06:07;0.30;99.90
14357;DHT22;7262;48.764;9.166;2023-01-29T06:08:34;0.30;99.90
14357;DHT22;7262;48.764;9.166;2023-01-29T06:11:01;0.30;99.90
14357;DHT22;7262;48.764;9.166;2023-01-29T06:13:28;0.30;99.90
14357;DHT22;7262;48.764;9.166;2023-01-29T06:15:57;0.30;99.90
14357;DHT22;7262;48.764;9.166;2023-01-29T06:18:23;0.30;99.90
14357;DHT22;7262;48.764;9.166;2023-01-29T06:20:50;0.40;99.90
14357;DHT22;7262;48.764;9.166;2023-01-29T06:23:17;0.40;99.90
14357;DHT22;7262;48.764;9.166;2023-01-29T06:25:44;0.40;99.90
14357;DHT22;7262;48.764;9.166;2023-01-29T06:28:11;0.40;99.90
14357;DHT22;7262;48.764;9.166;2023-01-29T06:30:37;0.30;99.90
14357;DHT22;7262;48.764;9.166;2023-01-29T06:33:05;0.30;99.90
14357;DHT22;7262;48.764;9.166;2023-01-29T06:35:32;0.30;99.90
14357;DHT22;7262;48.764;9.166;2023-01-29T06:37:59;0.30;99.90
14357;DHT22;7262;48.764;9.166;2023-01-29T06:40:26;0.30;99.90
14357;DHT22;7262;48.764;9.166;2023-01-29T06:42:53;0.30;99.90
14357;DHT22;7262;48.764;9.166;2023-01-29T06:45:20;0.30;99.90
14357;DHT22;7262;48.764;9.166;2023-01-29T06:47:47;0.30;99.90
14357;DHT22;7262;48.764;9.166;2023-01-29T06:50:15;0.30;99.90
14357;DHT22;7262;48.764;9.166;2023-01-29T06:52:42;0.40;99.90
14357;DHT22;7262;48.764;9.166;2023-01-29T06:55:09;0.40;99.90
14357;DHT22;7262;48.764;9.166;2023-01-29T06:57:36;0.40;99.90
14357;DHT22;7262;48.764;9.166;2023-01-29T07:00:03;0.40;99.90
14357;DHT22;7262;48.764;9.166;2023-01-29T07:02:30;0.40;99.90
14357;DHT22;7262;48.764;9.166;2023-01-29T07:04:57;0.40;99.90
14357;DHT22;7262;48.764;9.166;2023-01-29T07:07:26;0.40;99.90
14357;DHT22;7262;48.764;9.166;2023-01-29T07:09:52;0.40;99.90
14357;DHT22;7262;48.764;9.166;2023-01-29T07:12:19;0.40;99.90
14357;DHT22;7262;48.764;9.166;2023-01-29T07:14:46;0.40;99.90
14357;DHT22;7262;48.764;9.166;2023-01-29T07:17:13;0.40;99.90
14357;DHT22;7262;48.764;9.166;2023-01-29T07:19:40;0.40;99.90
14357;DHT22;7262;48.764;9.166;2023-01-29T07:22:07;0.40;99.90
14357;DHT22;7262;48.764;9.166;2023-01-29T07:24:35;0.40;99.90
14357;DHT22;7262;48.764;9.166;2023-01-29T07:27:02;0.40;99.90
14357;DHT22;7262;48.764;9.166;2023-01-29T07:29:29;0.50;99.90
14357;DHT22;7262;48.764;9.166;2023-01-29T07:31:56;0.40;99.90
14357;DHT22;7262;48.764;9.166;2023-01-29T07:34:23;0.50;99.90
14357;DHT22;7262;48.764;9.166;2023-01-29T07:36:51;0.50;99.90
14357;DHT22;7262;48.764;9.166;2023-01-29T07:39:18;0.50;99.90
14357;DHT22;7262;48.764;9.166;2023-01-29T07:41:46;0.50;99.90
14357;DHT22;7262;48.764;9.166;2023-01-29T07:44:13;0.60;99.90
14357;DHT22;7262;48.764;9.166;2023-01-29T07:46:41;0.70;99.90
14357;DHT22;7262;48.764;9.166;2023-01-29T07:49:09;0.70;99.90
14357;DHT22;7262;48.764;9.166;2023-01-29T07:51:36;0.70;99.90
14357;DHT22;7262;48.764;9.166;2023-01-29T07:54:03;0.70;99.90
14357;DHT22;7262;48.764;9.166;2023-01-29T07:56:30;0.80;99.90
14357;DHT22;7262;48.764;9.166;2023-01-29T07:58:58;0.90;99.90
14357;DHT22;7262;48.764;9.166;2023-01-29T08:01:25;1.00;99.90
14357;DHT22;7262;48.764;9.166;2023-01-29T08:03:52;0.80;99.90
14357;DHT22;7262;48.764;9.166;2023-01-29T08:06:19;0.70;99.90
14357;DHT22;7262;48.764;9.166;2023-01-29T08:08:46;0.80;99.90
14357;DHT22;7262;48.764;9.166;2023-01-29T08:11:13;0.80;99.90
14357;DHT22;7262;48.764;9.166;2023-01-29T08:13:40;0.80;99.90
14357;DHT22;7262;48.764;9.166;2023-01-29T08:16:09;0.80;99.90
14357;DHT22;7262;48.764;9.166;2023-01-29T08:18:35;0.80;99.90
14357;DHT22;7262;48.764;9.166;2023-01-29T08:21:02;0.90;99.90
14357;DHT22;7262;48.764;9.166;2023-01-29T08:23:29;0.90;99.90
14357;DHT22;7262;48.764;9.166;2023-01-29T08:25:56;0.90;99.90
14357;DHT22;7262;48.764;9.166;2023-01-29T08:28:23;1.00;99.90
14357;DHT22;7262;48.764;9.166;2023-01-29T08:30:50;1.00;99.90
14357;DHT22;7262;48.764;9.166;2023-01-29T08:33:18;1.00;99.90
14357;DHT22;7262;48.764;9.166;2023-01-29T08:35:48;1.10;99.90
14357;DHT22;7262;48.764;9.166;2023-01-29T08:38:15;1.00;99.90
14357;DHT22;7262;48.764;9.166;2023-01-29T08:40:42;1.00;99.90
14357;DHT22;7262;48.764;9.166;2023-01-29T08:43:10;1.00;99.90
14357;DHT22;7262;48.764;9.166;2023-01-29T08:45:39;1.20;99.90
14357;DHT22;7262;48.764;9.166;2023-01-29T08:48:06;1.10;99.90
14357;DHT22;7262;48.764;9.166;2023-01-29T08:50:37;1.10;99.90
14357;DHT22;7262;48.764;9.166;2023-01-29T08:53:04;1.10;99.90
14357;DHT22;7262;48.764;9.166;2023-01-29T08:55:33;1.10;99.90
14357;DHT22;7262;48.764;9.166;2023-01-29T08:58:02;1.10;99.90
14357;DHT22;7262;48.764;9.166;2023-01-29T09:00:28;1.20;99.90
14357;DHT22;7262;48.764;9.166;2023-01-29T09:02:55;1.20;99.90
14357;DHT22;7262;48.764;9.166;2023-01-29T09:05:24;1.20;99.90
14357;DHT22;7262;48.764;9.166;2023-01-29T09:07:52;1.20;99.90
14357;DHT22;7262;48.764;9.166;2023-01-29T09:10:19;1.30;99.90
14357;DHT22;7262;48.764;9.166;2023-01-29T09:12:46;1.40;99.90
14357;DHT22;7262;48.764;9.166;2023-01-29T09:15:13;1.40;99.90
14357;DHT22;7262;48.764;9.166;2023-01-29T09:17:40;1.50;99.90
14357;DHT22;7262;48.764;9.166;2023-01-29T09:20:08;1.70;99.90
14357;DHT22;7262;48.764;9.166;2023-01-29T09:22:35;1.70;99.90
14357;DHT22;7262;48.764;9.166;2023-01-29T09:25:03;1.60;99.90
14357;DHT22;7262;48.764;9.166;2023-01-29T09:27:30;1.70;99.90
14357;DHT22;7262;48.764;9.166;2023-01-29T09:29:57;1.80;99.90
14357;DHT22;7262;48.764;9.166;2023-01-29T09:32:24;1.80;99.90
14357;DHT22;7262;48.764;9.166;2023-01-29T09:34:51;1.90;99.90
14357;DHT22;7262;48.764;9.166;2023-01-29T09:37:18;2.00;99.90
14357;DHT22;7262;48.764;9.166;2023-01-29T09:39:47;1.80;99.90
14357;DHT22;7262;48.764;9.166;2023-01-29T09:42:17;1.70;99.90
14357;DHT22;7262;48.764;9.166;2023-01-29T09:44:46;1.70;99.90
14357;DHT22;7262;48.764;9.166;2023-01-29T09:47:15;1.80;99.90
14357;DHT22;7262;48.764;9.166;2023-01-29T09:49:45;1.80;99.90
14357;DHT22;7262;48.764;9.166;2023-01-29T09:52:14;1.80;99.90
14357;DHT22;7262;48.764;9.166;2023-01-29T09:54:46;1.80;99.90
14357;DHT22;7262;48.764;9.166;2023-01-29T09:57:16;1.90;99.90
14357;DHT22;7262;48.764;9.166;2023-01-29T09:59:44;2.20;99.90
14357;DHT22;7262;48.764;9.166;2023-01-29T10:02:16;2.30;99.90
14357;DHT22;7262;48.764;9.166;2023-01-29T10:04:51;2.40;99.90
14357;DHT22;7262;48.764;9.166;2023-01-29T10:07:27;2.60;99.90
14357;DHT22;7262;48.764;9.166;2023-01-29T10:10:00;2.80;99.90
14357;DHT22;7262;48.764;9.166;2023-01-29T10:12:37;3.20;99.90
14357;DHT22;7262;48.764;9.166;2023-01-29T10:15:12;3.60;99.90
14357;DHT22;7262;48.764;9.166;2023-01-29T10:17:46;3.70;99.90
14357;DHT22;7262;48.764;9.166;2023-01-29T10:20:26;3.70;99.90
14357;DHT22;7262;48.764;9.166;2023-01-29T10:23:02;3.60;99.90
14357;DHT22;7262;48.764;9.166;2023-01-29T10:25:34;3.40;99.90
14357;DHT22;7262;48.764;9.166;2023-01-29T10:28:04;3.30;99.90
14357;DHT22;7262;48.764;9.166;2023-01-29T10:30:40;3.40;99.90
14357;DHT22;7262;48.764;9.166;2023-01-29T10:33:13;3.40;99.90
14357;DHT22;7262;48.764;9.166;2023-01-29T10:35:42;3.40;99.90
14357;DHT22;7262;48.764;9.166;2023-01-29T10:38:14;3.50;99.90
14357;DHT22;7262;48.764;9.166;2023-01-29T10:40:45;3.60;99.90
14357;DHT22;7262;48.764;9.166;2023-01-29T10:43:19;3.70;99.90
14357;DHT22;7262;48.764;9.166;2023-01-29T10:45:49;3.80;99.90
14357;DHT22;7262;48.764;9.166;2023-01-29T10:48:27;3.70;99.90
14357;DHT22;7262;48.764;9.166;2023-01-29T10:51:00;3.80;99.90
14357;DHT22;7262;48.764;9.166;2023-01-29T10:53:33;3.70;99.90
14357;DHT22;7262;48.764;9.166;2023-01-29T10:56:05;3.60;99.90
14357;DHT22;7262;48.764;9.166;2023-01-29T10:58:37;3.60;99.90
14357;DHT22;7262;48.764;9.166;2023-01-29T11:01:05;3.40;99.90
14357;DHT22;7262;48.764;9.166;2023-01-29T11:03:35;3.30;99.90
14357;DHT22;7262;48.764;9.166;2023-01-29T11:06:06;3.20;99.90
14357;DHT22;7262;48.764;9.166;2023-01-29T11:08:37;3.30;99.90
14357;DHT22;7262;48.764;9.166;2023-01-29T11:11:06;3.40;99.90
14357;DHT22;7262;48.764;9.166;2023-01-29T11:13:34;3.40;99.90
14357;DHT22;7262;48.764;9.166;2023-01-29T11:16:05;3.40;99.90
14357;DHT22;7262;48.764;9.166;2023-01-29T11:18:50;3.50;99.90
14357;DHT22;7262;48.764;9.166;2023-01-29T11:21:17;3.50;99.90
14357;DHT22;7262;48.764;9.166;2023-01-29T11:23:44;3.60;99.90
14357;DHT22;7262;48.764;9.166;2023-01-29T11:26:13;3.70;99.90
14357;DHT22;7262;48.764;9.166;2023-01-29T11:28:44;3.80;99.90
14357;DHT22;7262;48.764;9.166;2023-01-29T11:31:20;3.90;99.90
14357;DHT22;7262;48.764;9.166;2023-01-29T11:33:51;3.80;99.90
14357;DHT22;7262;48.764;9.166;2023-01-29T11:36:19;3.90;99.90
14357;DHT22;7262;48.764;9.166;2023-01-29T11:38:52;4.10;99.90
14357;DHT22;7262;48.764;9.166;2023-01-29T11:41:40;3.90;99.90
14357;DHT22;7262;48.764;9.166;2023-01-29T11:44:16;3.90;99.90
14357;DHT22;7262;48.764;9.166;2023-01-29T11:46:45;4.00;99.90
14357;DHT22;7262;48.764;9.166;2023-01-29T11:49:15;4.10;99.90
14357;DHT22;7262;48.764;9.166;2023-01-29T11:51:49;4.10;99.90
14357;DHT22;7262;48.764;9.166;2023-01-29T11:54:18;4.10;99.90
14357;DHT22;7262;48.764;9.166;2023-01-29T11:56:45;4.30;99.90
14357;DHT22;7262;48.764;9.166;2023-01-29T11:59:20;4.30;99.90
14357;DHT22;7262;48.764;9.166;2023-01-29T12:01:53;4.40;99.90
14357;DHT22;7262;48.764;9.166;2023-01-29T12:04:22;4.40;99.90
14357;DHT22;7262;48.764;9.166;2023-01-29T12:06:51;4.30;99.90
14357;DHT22;7262;48.764;9.166;2023-01-29T12:09:18;4.10;99.90
14357;DHT22;7262;48.764;9.166;2023-01-29T12:11:51;4.10;99.90
14357;DHT22;7262;48.764;9.166;2023-01-29T12:14:28;3.90;99.90
14357;DHT22;7262;48.764;9.166;2023-01-29T12:17:04;3.70;99.90
14357;DHT22;7262;48.764;9.166;2023-01-29T12:19:33;3.90;99.90
14357;DHT22;7262;48.764;9.166;2023-01-29T12:22:03;4.20;99.90
14357;DHT22;7262;48.764;9.166;2023-01-29T12:24:32;4.20;99.90
14357;DHT22;7262;48.764;9.166;2023-01-29T12:27:03;4.00;99.90
14357;DHT22;7262;48.764;9.166;2023-01-29T12:29:35;4.00;99.90
14357;DHT22;7262;48.764;9.166;2023-01-29T12:32:08;4.30;99.90
14357;DHT22;7262;48.764;9.166;2023-01-29T12:34:40;4.50;99.90
14357;DHT22;7262;48.764;9.166;2023-01-29T12:37:15;4.70;99.90
14357;DHT22;7262;48.764;9.166;2023-01-29T12:39:48;4.60;99.90
14357;DHT22;7262;48.764;9.166;2023-01-29T12:42:17;4.70;99.90
14357;DHT22;7262;48.764;9.166;2023-01-29T12:44:46;4.80;99.90
14357;DHT22;7262;48.764;9.166;2023-01-29T12:47:25;4.70;99.90
14357;DHT22;7262;48.764;9.166;2023-01-29T12:49:56;4.90;99.90
14357;DHT22;7262;48.764;9.166;2023-01-29T12:52:27;5.00;99.90
14357;DHT22;7262;48.764;9.166;2023-01-29T12:54:59;5.20;99.90
14357;DHT22;7262;48.764;9.166;2023-01-29T12:57:31;5.30;99.90
14357;DHT22;7262;48.764;9.166;2023-01-29T13:00:03;5.40;99.90
14357;DHT22;7262;48.764;9.166;2023-01-29T13:02:35;5.30;99.90
14357;DHT22;7262;48.764;9.166;2023-01-29T13:05:06;5.40;99.90
14357;DHT22;7262;48.764;9.166;2023-01-29T13:07:41;6.10;99.90
14357;DHT22;7262;48.764;9.166;2023-01-29T13:10:12;6.70;99.90
14357;DHT22;7262;48.764;9.166;2023-01-29T13:12:44;7.50;99.90
14357;DHT22;7262;48.764;9.166;2023-01-29T13:15:16;8.10;99.90
14357;DHT22;7262;48.764;9.166;2023-01-29T13:17:50;8.50;99.90
14357;DHT22;7262;48.764;9.166;2023-01-29T13:20:20;8.50;99.90
14357;DHT22;7262;48.764;9.166;2023-01-29T13:22:49;7.70;99.90
14357;DHT22;7262;48.764;9.166;2023-01-29T13:25:17;8.00;99.90
14357;DHT22;7262;48.764;9.166;2023-01-29T13:27:44;8.50;99.90
14357;DHT22;7262;48.764;9.166;2023-01-29T13:30:24;8.30;99.90
14357;DHT22;7262;48.764;9.166;2023-01-29T13:32:53;8.00;99.90
14357;DHT22;7262;48.764;9.166;2023-01-29T13:35:33;8.10;99.90
14357;DHT22;7262;48.764;9.166;2023-01-29T13:38:00;8.10;99.90
14357;DHT22;7262;48.764;9.166;2023-01-29T13:40:28;8.00;99.90
14357;DHT22;7262;48.764;9.166;2023-01-29T13:42:56;6.80;99.90
14357;DHT22;7262;48.764;9.166;2023-01-29T13:45:24;6.10;99.90
14357;DHT22;7262;48.764;9.166;2023-01-29T13:47:55;5.80;99.90
14357;DHT22;7262;48.764;9.166;2023-01-29T13:50:48;5.90;99.90
14357;DHT22;7262;48.764;9.166;2023-01-29T13:53:21;6.30;99.90
14357;DHT22;7262;48.764;9.166;2023-01-29T13:55:49;6.50;99.90
14357;DHT22;7262;48.764;9.166;2023-01-29T13:58:17;6.30;99.90
14357;DHT22;7262;48.764;9.166;2023-01-29T14:01:04;6.40;99.90
14357;DHT22;7262;48.764;9.166;2023-01-29T14:11:54;5.60;99.90
14357;DHT22;7262;48.764;9.166;2023-01-29T14:17:07;4.60;99.90
14357;DHT22;7262;48.764;9.166;2023-01-29T14:19:33;4.40;99.90
14357;DHT22;7262;48.764;9.166;2023-01-29T14:22:00;4.50;99.90
14357;DHT22;7262;48.764;9.166;2023-01-29T14:24:28;4.30;99.90
14357;DHT22;7262;48.764;9.166;2023-01-29T14:26:57;4.30;99.90
14357;DHT22;7262;48.764;9.166;2023-01-29T14:29:25;4.30;99.90
14357;DHT22;7262;48.764;9.166;2023-01-29T14:31:57;4.30;99.90
14357;DHT22;7262;48.764;9.166;2023-01-29T14:34:27;4.10;99.90
14357;DHT22;7262;48.764;9.166;2023-01-29T14:36:56;4.30;99.90
14357;DHT22;7262;48.764;9.166;2023-01-29T14:39:27;4.50;99.90
14357;DHT22;7262;48.764;9.166;2023-01-29T14:41:57;4.70;99.90
14357;DHT22;7262;48.764;9.166;2023-01-29T14:47:16;4.60;99.90
14357;DHT22;7262;48.764;9.166;2023-01-29T14:49:46;4.60;99.90
14357;DHT22;7262;48.764;9.166;2023-01-29T14:52:13;4.50;99.90
14357;DHT22;7262;48.764;9.166;2023-01-29T14:54:41;4.40;99.90
14357;DHT22;7262;48.764;9.166;2023-01-29T14:57:11;4.10;99.90
14357;DHT22;7262;48.764;9.166;2023-01-29T14:59:42;4.10;99.90
14357;DHT22;7262;48.764;9.166;2023-01-29T15:02:11;4.00;99.90
14357;DHT22;7262;48.764;9.166;2023-01-29T15:04:42;4.00;99.90
14357;DHT22;7262;48.764;9.166;2023-01-29T15:07:14;3.80;99.90
14357;DHT22;7262;48.764;9.166;2023-01-29T15:09:45;3.80;99.90
14357;DHT22;7262;48.764;9.166;2023-01-29T15:12:17;3.70;99.90
14357;DHT22;7262;48.764;9.166;2023-01-29T15:14:47;3.40;99.90
14357;DHT22;7262;48.764;9.166;2023-01-29T15:17:21;3.50;99.90
14357;DHT22;7262;48.764;9.166;2023-01-29T15:19:51;3.50;99.90
14357;DHT22;7262;48.764;9.166;2023-01-29T15:22:18;3.60;99.90
14357;DHT22;7262;48.764;9.166;2023-01-29T15:24:45;3.70;99.90
14357;DHT22;7262;48.764;9.166;2023-01-29T15:27:13;3.50;99.90
14357;DHT22;7262;48.764;9.166;2023-01-29T15:29:45;3.60;99.90
14357;DHT22;7262;48.764;9.166;2023-01-29T15:32:14;3.50;99.90
14357;DHT22;7262;48.764;9.166;2023-01-29T15:34:45;3.40;99.90
14357;DHT22;7262;48.764;9.166;2023-01-29T15:37:25;3.30;99.90
14357;DHT22;7262;48.764;9.166;2023-01-29T15:39:53;3.30;99.90
14357;DHT22;7262;48.764;9.166;2023-01-29T15:42:20;3.30;99.90
14357;DHT22;7262;48.764;9.166;2023-01-29T15:44:52;3.20;99.90
14357;DHT22;7262;48.764;9.166;2023-01-29T15:47:20;3.10;99.90
14357;DHT22;7262;48.764;9.166;2023-01-29T15:49:49;3.20;99.90
14357;DHT22;7262;48.764;9.166;2023-01-29T15:52:17;3.10;99.90
14357;DHT22;7262;48.764;9.166;2023-01-29T15:54:45;3.00;99.90
14357;DHT22;7262;48.764;9.166;2023-01-29T15:57:17;3.00;99.90
14357;DHT22;7262;48.764;9.166;2023-01-29T15:59:44;2.80;99.90
14357;DHT22;7262;48.764;9.166;2023-01-29T16:17:42;2.30;99.90
14357;DHT22;7262;48.764;9.166;2023-01-29T16:20:19;2.30;99.90
14357;DHT22;7262;48.764;9.166;2023-01-29T16:22:46;2.30;99.90
14357;DHT22;7262;48.764;9.166;2023-01-29T16:25:15;2.20;99.90
14357;DHT22;7262;48.764;9.166;2023-01-29T16:27:42;2.10;99.90
14357;DHT22;7262;48.764;9.166;2023-01-29T16:30:09;2.00;99.90
14357;DHT22;7262;48.764;9.166;2023-01-29T16:32:39;1.90;99.90
14357;DHT22;7262;48.764;9.166;2023-01-29T16:35:12;1.90;99.90
14357;DHT22;7262;48.764;9.166;2023-01-29T16:37:40;1.80;99.90
14357;DHT22;7262;48.764;9.166;2023-01-29T16:40:11;1.80;99.90
14357;DHT22;7262;48.764;9.166;2023-01-29T16:42:38;1.80;99.90
14357;DHT22;7262;48.764;9.166;2023-01-29T16:45:12;1.70;99.90
14357;DHT22;7262;48.764;9.166;2023-01-29T16:47:58;1.60;99.90
14357;DHT22;7262;48.764;9.166;2023-01-29T16:50:30;1.50;99.90